Time;durP1;ratioP1;P1;durP2;ratioP2;P2;SDS_P1;SDS_P2;PMS_P1;PMS_P2;Temp;Humidity;BMP_temperature;BMP_pressure;BME280_temperature;BME280_humidity;BME280_pressure;Samples;Min_cycle;Max_cycle;Signal;HPM_P1;HPM_P2
2023/10/10 00:02:20;;;;;;;0.10;0.10;;;11.70;99.90;;;;;;5026957;28;20203;-88
2023/10/10 00:04:54;;;;;;;0.20;0.20;;;11.70;99.90;;;;;;5044130;28;20483;-88
2023/10/10 00:07:20;;;;;;;0.10;0.10;;;11.70;99.90;;;;;;5023585;28;20442;-87
2023/10/10 00:09:46;;;;;;;0.10;0.10;;;11.70;99.90;;;;;;5042776;28;20453;-88
2023/10/10 00:12:47;;;;;;;0.10;0.10;;;11.60;99.90;;;;;;5041841;28;20430;-89
2023/10/10 00:15:05;;;;;;;0.10;0.10;;;11.70;99.90;;;;;;5030466;28;20485;-88
2023/10/10 00:17:37;;;;;;;0.10;0.10;;;11.70;99.90;;;;;;5041229;28;20441;-89
2023/10/10 00:20:16;;;;;;;0.10;0.10;;;11.70;99.90;;;;;;5044779;28;20502;-89
2023/10/10 00:22:46;;;;;;;0.10;0.10;;;11.70;99.90;;;;;;5032433;28;20856;-89
2023/10/10 00:25:12;;;;;;;0.10;0.10;;;11.70;99.90;;;;;;5022191;28;20322;-88
2023/10/10 00:27:43;;;;;;;0.10;0.10;;;11.70;99.90;;;;;;5024809;28;20436;-88
2023/10/10 00:30:11;;;;;;;0.10;0.10;;;11.70;99.90;;;;;;5036486;28;20788;-87
2023/10/10 00:32:42;;;;;;;0.10;0.10;;;11.70;99.90;;;;;;5044089;28;20483;-88
2023/10/10 00:35:09;;;;;;;0.10;0.10;;;11.80;99.90;;;;;;5036308;28;20446;-89
2023/10/10 00:37:35;;;;;;;0.10;0.10;;;11.70;99.90;;;;;;5031411;28;20429;-88
2023/10/10 00:40:09;;;;;;;0.10;0.10;;;11.70;99.90;;;;;;5015688;28;20507;-88
2023/10/10 00:42:41;;;;;;;0.10;0.10;;;11.70;99.90;;;;;;5042252;28;20422;-88
2023/10/10 00:45:14;;;;;;;0.10;0.10;;;11.70;99.90;;;;;;5044293;28;20535;-88
2023/10/10 00:47:52;;;;;;;0.10;0.10;;;11.70;99.90;;;;;;5048286;28;20416;-89
2023/10/10 00:50:20;;;;;;;0.10;0.10;;;11.70;99.90;;;;;;5026709;28;20437;-89
2023/10/10 00:52:51;;;;;;;0.10;0.10;;;11.70;99.90;;;;;;5038401;28;20913;-88
2023/10/10 00:55:22;;;;;;;0.10;0.10;;;11.70;99.90;;;;;;5048288;28;20341;-88
2023/10/10 00:57:52;;;;;;;0.10;0.10;;;11.70;99.90;;;;;;5048064;28;20425;-88
2023/10/10 01:00:19;;;;;;;0.10;0.10;;;11.70;99.90;;;;;;5043375;28;20454;-89
2023/10/10 01:02:45;;;;;;;0.10;0.10;;;11.70;99.90;;;;;;5045872;28;21032;-88
2023/10/10 01:05:14;;;;;;;0.10;0.10;;;11.70;99.90;;;;;;5044395;28;20521;-89
2023/10/10 01:07:47;;;;;;;0.10;0.10;;;11.70;99.90;;;;;;5037179;28;20825;-89
2023/10/10 01:10:16;;;;;;;0.10;0.10;;;11.70;99.90;;;;;;5034187;28;20442;-89
2023/10/10 01:12:43;;;;;;;0.10;0.10;;;11.70;99.90;;;;;;5035884;28;20914;-88
2023/10/10 01:15:56;;;;;;;0.10;0.10;;;11.70;99.90;;;;;;5046231;28;20489;-89
2023/10/10 01:17:56;;;;;;;0.10;0.10;;;11.70;99.90;;;;;;5035266;28;20465;-88
2023/10/10 01:20:34;;;;;;;0.10;0.10;;;11.70;99.90;;;;;;5043739;28;20441;-88
2023/10/10 01:23:02;;;;;;;0.10;0.10;;;11.70;99.90;;;;;;5052987;28;20823;-88
2023/10/10 01:25:31;;;;;;;0.10;0.10;;;11.70;99.90;;;;;;5045952;28;20428;-89
2023/10/10 01:27:58;;;;;;;0.10;0.10;;;11.70;99.90;;;;;;5043338;28;20440;-88
2023/10/10 01:33:16;;;;;;;0.10;0.10;;;11.70;99.90;;;;;;5052490;28;20460;-89
2023/10/10 01:35:45;;;;;;;0.10;0.10;;;11.70;99.90;;;;;;5046195;28;20486;-89
2023/10/10 01:38:41;;;;;;;0.10;0.10;;;11.70;99.90;;;;;;5027983;28;20452;-89
2023/10/10 01:41:15;;;;;;;0.20;0.20;;;11.80;99.90;;;;;;5051496;28;20848;-88
2023/10/10 01:43:46;;;;;;;0.10;0.10;;;11.70;99.90;;;;;;5043690;28;20529;-87
2023/10/10 01:46:27;;;;;;;0.10;0.10;;;11.70;99.90;;;;;;5024082;28;20446;-90
2023/10/10 01:48:53;;;;;;;0.10;0.10;;;11.70;99.90;;;;;;5035123;28;20426;-88
2023/10/10 01:51:19;;;;;;;0.13;0.13;;;11.70;99.90;;;;;;5045403;28;20444;-89
2023/10/10 01:53:45;;;;;;;0.10;0.10;;;11.80;99.90;;;;;;5048297;28;20543;-89
2023/10/10 01:56:13;;;;;;;0.10;0.10;;;11.80;99.90;;;;;;5047456;28;20196;-89
2023/10/10 01:58:40;;;;;;;0.10;0.10;;;11.70;99.90;;;;;;5039662;28;20191;-88
2023/10/10 02:01:15;;;;;;;0.10;0.10;;;11.80;99.90;;;;;;5046805;28;20941;-89
2023/10/10 02:03:42;;;;;;;0.10;0.10;;;11.80;99.90;;;;;;5047956;28;20491;-88
2023/10/10 02:06:10;;;;;;;0.10;0.10;;;11.70;99.90;;;;;;5050607;28;20442;-88
2023/10/10 02:08:38;;;;;;;;;;;11.80;99.90;;;;;;5028627;28;20371;-88
2023/10/10 02:11:06;;;;;;;0.17;0.17;;;11.70;99.90;;;;;;5046398;28;20410;-89
2023/10/10 02:13:33;;;;;;;0.20;0.20;;;11.70;99.90;;;;;;5048158;28;20218;-88
2023/10/10 02:16:00;;;;;;;0.10;0.10;;;11.70;99.90;;;;;;5049752;28;20340;-88
2023/10/10 02:18:44;;;;;;;0.10;0.10;;;11.70;99.90;;;;;;5029946;28;20499;-88
2023/10/10 02:21:17;;;;;;;0.10;0.10;;;11.70;99.90;;;;;;5041373;28;20271;-88
2023/10/10 02:23:45;;;;;;;0.10;0.10;;;11.70;99.90;;;;;;5045932;28;20491;-87
2023/10/10 02:28:49;;;;;;;0.10;0.10;;;11.70;99.90;;;;;;5044418;28;20650;-89
2023/10/10 02:31:16;;;;;;;0.20;0.20;;;11.70;99.90;;;;;;5044087;28;20340;-89
2023/10/10 02:33:49;;;;;;;0.20;0.20;;;11.80;99.90;;;;;;5019745;28;20437;-88
2023/10/10 02:36:23;;;;;;;0.10;0.10;;;11.70;99.90;;;;;;5029563;28;20353;-88
2023/10/10 02:38:57;;;;;;;0.10;0.10;;;11.70;99.90;;;;;;5026716;28;20435;-88
2023/10/10 02:44:04;;;;;;;0.20;0.20;;;11.70;99.90;;;;;;5047548;28;20517;-87
2023/10/10 02:46:34;;;;;;;0.20;0.20;;;11.70;99.90;;;;;;5044784;28;21016;-87
2023/10/10 02:49:13;;;;;;;0.10;0.10;;;11.70;99.90;;;;;;5040246;28;20484;-87
2023/10/10 02:51:48;;;;;;;0.10;0.10;;;11.80;99.90;;;;;;5034337;28;20438;-89
2023/10/10 02:54:27;;;;;;;0.10;0.10;;;11.80;99.90;;;;;;5044747;28;20444;-89
2023/10/10 02:56:59;;;;;;;0.10;0.10;;;11.80;99.90;;;;;;5040093;28;20464;-88
2023/10/10 02:59:31;;;;;;;0.13;0.13;;;11.80;99.90;;;;;;5051165;28;20924;-88
2023/10/10 03:02:02;;;;;;;0.10;0.10;;;11.70;99.90;;;;;;5043220;28;20778;-87
2023/10/10 03:07:19;;;;;;;0.10;0.10;;;11.80;99.90;;;;;;5035341;28;20447;-89
2023/10/10 03:12:30;;;;;;;0.20;0.20;;;11.80;99.90;;;;;;5046491;28;20454;-88
2023/10/10 03:15:12;;;;;;;0.10;0.10;;;11.80;99.90;;;;;;5038076;28;20314;-88
2023/10/10 03:17:48;;;;;;;0.10;0.10;;;11.70;99.90;;;;;;5047041;28;20371;-88
2023/10/10 03:26:03;;;;;;;0.10;0.10;;;11.60;99.90;;;;;;5043000;28;20462;-88
2023/10/10 03:28:32;;;;;;;0.20;0.20;;;11.60;99.90;;;;;;5017979;28;20405;-88
2023/10/10 03:31:24;;;;;;;0.17;0.17;;;11.60;99.90;;;;;;5044119;28;20288;-88
2023/10/10 03:36:43;;;;;;;;;;;11.50;99.90;;;;;;5035359;28;20298;-87
2023/10/10 03:39:41;;;;;;;0.20;0.20;;;11.50;99.90;;;;;;5034303;28;20478;-88
2023/10/10 05:23:47;;;;;;;0.20;0.20;;;11.00;99.90;;;;;;5049119;28;20482;-89
2023/10/10 05:26:14;;;;;;;0.20;0.20;;;11.00;99.90;;;;;;5037402;28;20446;-88
2023/10/10 05:28:40;;;;;;;0.20;0.20;;;11.00;99.90;;;;;;5055893;28;20436;-86
2023/10/10 05:31:09;;;;;;;0.20;0.20;;;11.10;99.90;;;;;;5056624;28;20438;-89
2023/10/10 05:33:36;;;;;;;0.20;0.20;;;11.00;99.90;;;;;;5046360;28;20160;-89
2023/10/10 05:36:08;;;;;;;0.10;0.10;;;11.10;99.90;;;;;;5052295;28;20847;-89
2023/10/10 05:38:39;;;;;;;0.20;0.20;;;11.10;99.90;;;;;;5047900;28;20941;-90
2023/10/10 05:41:06;;;;;;;0.20;0.20;;;11.10;99.90;;;;;;5025021;28;20438;-88
2023/10/10 05:43:35;;;;;;;0.20;0.20;;;11.10;99.90;;;;;;5037682;28;20825;-88
2023/10/10 05:46:03;;;;;;;0.20;0.20;;;11.10;99.90;;;;;;5052451;28;20989;-87
2023/10/10 05:48:31;;;;;;;0.10;0.10;;;11.10;99.90;;;;;;5019445;28;20478;-87
2023/10/10 05:50:57;;;;;;;0.20;0.20;;;11.10;99.90;;;;;;5052028;28;20420;-88
2023/10/10 05:53:24;;;;;;;0.10;0.10;;;11.10;99.90;;;;;;5032956;28;20537;-88
2023/10/10 05:55:53;;;;;;;0.10;0.10;;;11.10;99.90;;;;;;5051577;28;20430;-87
2023/10/10 05:58:20;;;;;;;0.20;0.20;;;11.10;99.90;;;;;;5044013;28;20993;-86
2023/10/10 06:00:48;;;;;;;0.10;0.10;;;11.10;99.90;;;;;;5045880;28;20947;-91
2023/10/10 06:03:16;;;;;;;0.20;0.20;;;11.10;99.90;;;;;;5047151;28;20457;-84
2023/10/10 06:05:45;;;;;;;0.20;0.20;;;11.10;99.90;;;;;;5029092;28;20441;-88
2023/10/10 06:08:12;;;;;;;0.20;0.20;;;11.10;99.90;;;;;;5049619;28;20430;-88
2023/10/10 06:10:38;;;;;;;0.20;0.20;;;11.10;99.90;;;;;;5043997;28;20450;-87
2023/10/10 06:13:04;;;;;;;0.20;0.20;;;11.20;99.90;;;;;;5038633;28;20822;-88
2023/10/10 06:15:33;;;;;;;0.20;0.20;;;11.20;99.90;;;;;;5040628;28;20193;-89
2023/10/10 06:18:08;;;;;;;0.20;0.20;;;11.20;99.90;;;;;;5048901;28;20182;-87
2023/10/10 06:20:40;;;;;;;0.20;0.20;;;11.20;99.90;;;;;;5045258;28;20870;-86
2023/10/10 06:23:08;;;;;;;0.20;0.20;;;11.20;99.90;;;;;;5035078;28;21091;-88
2023/10/10 06:25:36;;;;;;;0.20;0.20;;;11.20;99.90;;;;;;5028077;28;20823;-87
2023/10/10 06:28:05;;;;;;;0.20;0.20;;;11.20;99.90;;;;;;5046355;28;20441;-88
2023/10/10 06:30:36;;;;;;;0.10;0.10;;;11.20;99.90;;;;;;5051402;28;20527;-90
2023/10/10 06:33:09;;;;;;;0.20;0.20;;;11.20;99.90;;;;;;5041630;28;20429;-88
2023/10/10 06:35:37;;;;;;;0.10;0.10;;;11.20;99.90;;;;;;5041174;28;20950;-90
2023/10/10 06:38:10;;;;;;;0.10;0.10;;;11.20;99.90;;;;;;5045819;28;20452;-87
2023/10/10 06:40:42;;;;;;;0.13;0.13;;;11.30;99.90;;;;;;5050577;28;20444;-88
2023/10/10 06:43:08;;;;;;;0.20;0.20;;;11.30;99.90;;;;;;5041500;28;21028;-87
2023/10/10 06:45:40;;;;;;;0.20;0.20;;;11.30;99.90;;;;;;5041509;28;20445;-90
2023/10/10 06:48:08;;;;;;;0.20;0.20;;;11.30;99.90;;;;;;5050316;28;20817;-90
2023/10/10 06:50:38;;;;;;;0.20;0.20;;;11.30;99.90;;;;;;5043555;28;21016;-89
2023/10/10 06:53:04;;;;;;;0.20;0.20;;;11.30;99.90;;;;;;5047744;28;20536;-86
2023/10/10 06:55:45;;;;;;;0.10;0.10;;;11.40;99.90;;;;;;5038953;28;20528;-88
2023/10/10 06:58:13;;;;;;;0.20;0.20;;;11.40;99.90;;;;;;5030987;28;20189;-87
2023/10/10 07:00:53;;;;;;;0.20;0.20;;;11.50;99.90;;;;;;5035391;28;20510;-88
2023/10/10 07:03:30;;;;;;;0.10;0.10;;;11.50;99.90;;;;;;5030718;28;20987;-86
2023/10/10 07:06:02;;;;;;;0.10;0.10;;;11.50;99.90;;;;;;5045766;28;20460;-89
2023/10/10 07:08:28;;;;;;;0.10;0.10;;;11.60;99.90;;;;;;5029844;28;20436;-87
2023/10/10 07:10:53;;;;;;;0.20;0.20;;;11.60;99.90;;;;;;5025610;28;20457;-89
2023/10/10 07:13:29;;;;;;;0.20;0.20;;;11.60;99.90;;;;;;5047727;28;20226;-87
2023/10/10 07:15:55;;;;;;;0.20;0.20;;;11.60;99.90;;;;;;5040809;28;20229;-86
2023/10/10 07:18:24;;;;;;;0.20;0.20;;;11.70;99.90;;;;;;5041022;28;20442;-86
2023/10/10 07:21:04;;;;;;;0.10;0.10;;;11.70;99.90;;;;;;5049366;28;21023;-88
2023/10/10 07:23:37;;;;;;;0.10;0.10;;;11.70;99.90;;;;;;5040349;28;20472;-86
2023/10/10 07:26:19;;;;;;;0.20;0.20;;;11.70;99.90;;;;;;5050452;28;20873;-87
2023/10/10 07:28:48;;;;;;;0.10;0.10;;;11.70;99.90;;;;;;5047836;28;20485;-88
2023/10/10 07:31:17;;;;;;;0.10;0.10;;;11.70;99.90;;;;;;5045274;28;20444;-89
2023/10/10 07:33:45;;;;;;;0.20;0.20;;;11.70;99.90;;;;;;5046650;28;20520;-88
2023/10/10 07:36:13;;;;;;;0.10;0.10;;;11.60;99.90;;;;;;5048155;28;20425;-88
2023/10/10 07:38:39;;;;;;;0.20;0.20;;;11.70;99.90;;;;;;5039278;28;20440;-86
2023/10/10 07:41:05;;;;;;;0.10;0.10;;;11.70;99.90;;;;;;5043035;28;20958;-88
2023/10/10 07:43:34;;;;;;;0.10;0.10;;;11.70;99.90;;;;;;5021572;28;20485;-87
2023/10/10 07:46:18;;;;;;;0.10;0.10;;;11.70;99.90;;;;;;5039422;28;20175;-87
2023/10/10 07:48:46;;;;;;;0.13;0.13;;;11.70;99.90;;;;;;5038843;28;20506;-90
2023/10/10 07:51:16;;;;;;;0.10;0.10;;;11.70;99.90;;;;;;5039182;28;20770;-86
2023/10/10 07:53:44;;;;;;;0.17;0.17;;;11.80;99.90;;;;;;5038870;28;20632;-86
2023/10/10 07:56:09;;;;;;;0.20;0.20;;;11.80;99.90;;;;;;5044808;28;20443;-87
2023/10/10 07:58:49;;;;;;;0.20;0.20;;;11.80;99.90;;;;;;5047116;28;20449;-89
2023/10/10 08:01:18;;;;;;;0.20;0.20;;;11.90;99.90;;;;;;5034164;28;20184;-88
2023/10/10 08:03:45;;;;;;;0.20;0.20;;;11.80;99.90;;;;;;5046596;28;21026;-88
2023/10/10 08:06:17;;;;;;;0.10;0.10;;;11.90;99.90;;;;;;5031275;28;20569;-88
2023/10/10 08:08:44;;;;;;;0.20;0.20;;;11.90;99.90;;;;;;5031786;28;20441;-88
2023/10/10 08:11:25;;;;;;;0.20;0.20;;;11.90;99.90;;;;;;5026872;28;20973;-89
2023/10/10 08:13:50;;;;;;;0.10;0.10;;;11.90;99.90;;;;;;5054009;28;20471;-88
2023/10/10 08:16:29;;;;;;;0.10;0.10;;;11.90;99.90;;;;;;5024318;28;20458;-90
2023/10/10 08:18:55;;;;;;;0.20;0.20;;;11.90;99.90;;;;;;5018480;28;20189;-88
2023/10/10 08:21:24;;;;;;;0.10;0.10;;;11.90;99.90;;;;;;5042202;28;20437;-88
2023/10/10 08:23:56;;;;;;;0.10;0.10;;;11.90;99.90;;;;;;5025296;28;20481;-87
2023/10/10 08:26:26;;;;;;;;;;;12.00;99.90;;;;;;5040189;28;20430;-86
2023/10/10 08:28:52;;;;;;;0.10;0.10;;;12.00;99.90;;;;;;5038028;28;20829;-88
2023/10/10 08:31:19;;;;;;;0.20;0.20;;;12.00;99.90;;;;;;5025095;28;20506;-88
2023/10/10 08:33:46;;;;;;;0.20;0.20;;;12.00;99.90;;;;;;5029880;28;20869;-87
2023/10/10 08:36:25;;;;;;;0.20;0.20;;;12.10;99.90;;;;;;5027509;28;20450;-88
2023/10/10 08:38:51;;;;;;;0.10;0.10;;;12.10;99.90;;;;;;5049772;28;20420;-90
2023/10/10 08:41:43;;;;;;;0.20;0.20;;;12.20;99.90;;;;;;5027147;28;20489;-89
2023/10/10 08:44:10;;;;;;;0.13;0.13;;;12.20;99.90;;;;;;5043441;28;20480;-91
2023/10/10 08:46:46;;;;;;;0.10;0.10;;;12.30;99.90;;;;;;5029671;28;20434;-91
2023/10/10 08:49:15;;;;;;;0.10;0.10;;;12.30;99.90;;;;;;5043644;28;20437;-93
2023/10/10 08:51:44;;;;;;;0.20;0.20;;;12.40;99.90;;;;;;5026530;28;20430;-89
2023/10/10 08:54:12;;;;;;;0.10;0.10;;;12.40;99.90;;;;;;5017086;28;20423;-90
2023/10/10 08:56:42;;;;;;;0.10;0.10;;;12.40;99.90;;;;;;5062086;28;20432;-93
2023/10/10 08:59:16;;;;;;;0.10;0.10;;;12.40;99.90;;;;;;5048444;28;20447;-90
2023/10/10 09:01:42;;;;;;;0.10;0.10;;;12.40;99.90;;;;;;5033670;28;20792;-92
2023/10/10 09:04:12;;;;;;;0.10;0.10;;;12.50;99.90;;;;;;5052322;28;20461;-90
2023/10/10 09:09:37;;;;;;;0.10;0.10;;;12.70;99.90;;;;;;5039520;28;20987;-90
2023/10/10 09:12:04;;;;;;;0.10;0.10;;;12.70;99.90;;;;;;5047057;28;20439;-90
2023/10/10 09:14:41;;;;;;;0.10;0.10;;;12.80;99.90;;;;;;5050141;28;20474;-88
2023/10/10 09:17:22;;;;;;;0.10;0.10;;;12.80;99.90;;;;;;5031931;28;20429;-92
2023/10/10 09:19:49;;;;;;;0.10;0.10;;;12.70;99.90;;;;;;5045203;28;20420;-89
2023/10/10 09:22:34;;;;;;;0.17;0.17;;;12.70;99.90;;;;;;5048765;28;20441;-88
2023/10/10 09:25:18;;;;;;;0.20;0.20;;;12.80;99.90;;;;;;5047850;28;20976;-92
2023/10/10 09:27:57;;;;;;;0.20;0.20;;;12.90;99.90;;;;;;5043598;28;20832;-93
2023/10/10 09:30:30;;;;;;;0.10;0.10;;;13.00;99.90;;;;;;5038028;28;20453;-86
2023/10/10 09:33:02;;;;;;;0.10;0.10;;;13.00;99.90;;;;;;5033084;28;20959;-91
2023/10/10 09:35:28;;;;;;;0.10;0.10;;;13.00;99.90;;;;;;5043617;28;20525;-92
2023/10/10 09:37:57;;;;;;;0.10;0.10;;;13.00;99.90;;;;;;5043765;28;21017;-92
2023/10/10 09:40:24;;;;;;;0.10;0.10;;;12.90;99.90;;;;;;5048912;28;20669;-92
2023/10/10 09:43:03;;;;;;;0.10;0.10;;;13.00;99.90;;;;;;5023072;28;20483;-92
2023/10/10 09:45:52;;;;;;;0.10;0.10;;;13.00;99.90;;;;;;5045652;28;20548;-91
2023/10/10 09:48:46;;;;;;;0.10;0.10;;;13.00;99.90;;;;;;5055367;28;20437;-89
2023/10/10 09:51:30;;;;;;;0.10;0.10;;;13.00;99.90;;;;;;5048825;28;20884;-91
2023/10/10 09:54:15;;;;;;;0.10;0.10;;;13.00;99.90;;;;;;5047239;28;20425;-90
2023/10/10 09:56:45;;;;;;;0.10;0.10;;;13.10;99.90;;;;;;5052275;28;20421;-88
2023/10/10 09:59:13;;;;;;;0.10;0.10;;;13.00;99.90;;;;;;5049097;28;20855;-90
2023/10/10 10:01:45;;;;;;;0.10;0.10;;;13.00;99.90;;;;;;5043990;28;20433;-94
2023/10/10 10:04:18;;;;;;;0.10;0.10;;;13.10;99.90;;;;;;5037204;28;20478;-93
2023/10/10 10:06:52;;;;;;;0.10;0.10;;;13.10;99.90;;;;;;5045899;28;20526;-94
2023/10/10 10:09:53;;;;;;;0.10;0.10;;;13.20;99.90;;;;;;5029230;28;20457;-95
2023/10/10 10:12:41;;;;;;;0.10;0.10;;;13.20;99.90;;;;;;5028503;28;20504;-95
2023/10/10 10:15:39;;;;;;;0.10;0.10;;;13.40;99.90;;;;;;5053382;28;20461;-94
2023/10/10 10:18:19;;;;;;;0.10;0.10;;;13.40;99.90;;;;;;5042376;28;20400;-91
2023/10/10 10:21:03;;;;;;;0.10;0.10;;;13.60;99.90;;;;;;5059972;28;20425;-88
2023/10/10 10:23:33;;;;;;;0.10;0.10;;;13.60;99.90;;;;;;5048593;28;20464;-93
2023/10/10 10:26:12;;;;;;;0.10;0.10;;;13.70;99.90;;;;;;5019256;28;20449;-84
2023/10/10 10:28:41;;;;;;;0.10;0.10;;;13.60;99.90;;;;;;5043055;28;20440;-85
2023/10/10 10:31:16;;;;;;;0.10;0.10;;;13.70;99.90;;;;;;5048775;28;20441;-86
2023/10/10 10:34:05;;;;;;;0.10;0.10;;;13.80;99.90;;;;;;5041148;28;20531;-83
2023/10/10 10:36:55;;;;;;;0.10;0.10;;;13.90;99.90;;;;;;5042233;28;20437;-84
2023/10/10 10:39:26;;;;;;;0.10;0.10;;;13.90;99.90;;;;;;5052563;28;20528;-86
2023/10/10 10:41:59;;;;;;;0.10;0.10;;;13.80;99.90;;;;;;5021537;28;20446;-87
2023/10/10 10:44:53;;;;;;;0.10;0.10;;;13.80;99.90;;;;;;5041835;28;20479;-87
2023/10/10 10:47:46;;;;;;;0.10;0.10;;;14.00;99.90;;;;;;5040145;28;20522;-87
2023/10/10 10:50:29;;;;;;;0.10;0.10;;;14.10;99.90;;;;;;5044914;28;20433;-85
2023/10/10 10:53:08;;;;;;;0.10;0.10;;;14.30;99.90;;;;;;5047795;28;20441;-85
2023/10/10 10:55:39;;;;;;;0.10;0.10;;;14.40;99.90;;;;;;5047134;28;20483;-83
2023/10/10 10:58:07;;;;;;;0.10;0.10;;;14.40;99.90;;;;;;5051022;28;20469;-85
2023/10/10 11:01:02;;;;;;;0.10;0.10;;;14.50;99.90;;;;;;5044844;28;20507;-86
2023/10/10 11:03:34;;;;;;;0.10;0.10;;;14.70;99.90;;;;;;5043626;28;20466;-86
2023/10/10 11:06:06;;;;;;;0.10;0.10;;;14.60;99.90;;;;;;5045538;28;20462;-84
2023/10/10 11:11:24;;;;;;;0.10;0.10;;;14.80;99.90;;;;;;5057352;28;20869;-84
2023/10/10 11:13:54;;;;;;;0.10;0.10;;;14.90;99.90;;;;;;5040210;28;20531;-86
2023/10/10 11:16:36;;;;;;;0.10;0.10;;;15.00;99.90;;;;;;5023361;28;20509;-86
2023/10/10 11:19:12;;;;;;;0.10;0.10;;;15.10;99.90;;;;;;5034846;28;20436;-85
2023/10/10 11:21:47;;;;;;;0.10;0.10;;;15.30;99.90;;;;;;5021227;28;20949;-85
2023/10/10 11:24:14;;;;;;;0.10;0.10;;;15.40;99.90;;;;;;5046194;28;20515;-85
2023/10/10 11:26:40;;;;;;;0.10;0.10;;;15.40;99.90;;;;;;5044690;28;21004;-85
2023/10/10 11:29:21;;;;;;;0.10;0.10;;;15.30;99.90;;;;;;5041838;28;20780;-84
2023/10/10 11:31:48;;;;;;;0.10;0.10;;;15.20;99.90;;;;;;5041992;28;20441;-85
2023/10/10 11:34:33;;;;;;;0.10;0.10;;;15.10;99.90;;;;;;5048087;28;20450;-82
2023/10/10 11:37:23;;;;;;;0.10;0.10;;;15.10;99.90;;;;;;5050160;28;20429;-85
2023/10/10 11:39:58;;;;;;;0.10;0.10;;;15.20;99.90;;;;;;5037315;28;20446;-85
2023/10/10 11:42:27;;;;;;;0.10;0.10;;;15.30;99.90;;;;;;5025203;28;20942;-88
2023/10/10 11:44:54;;;;;;;0.10;0.10;;;15.50;99.90;;;;;;5042900;28;20483;-88
2023/10/10 11:47:26;;;;;;;0.10;0.10;;;15.60;99.90;;;;;;5040560;28;20437;-88
2023/10/10 11:50:05;;;;;;;0.10;0.10;;;15.70;99.90;;;;;;5016199;28;20445;-89
2023/10/10 11:52:32;;;;;;;0.10;0.10;;;15.80;99.90;;;;;;5040234;28;20426;-89
2023/10/10 11:55:07;;;;;;;0.10;0.10;;;15.80;99.90;;;;;;5039270;28;20445;-88
2023/10/10 11:57:34;;;;;;;0.10;0.10;;;15.80;99.90;;;;;;5049099;28;20532;-87
2023/10/10 12:00:00;;;;;;;0.10;0.10;;;15.90;99.90;;;;;;5040430;28;20949;-88
2023/10/10 12:02:29;;;;;;;0.10;0.10;;;15.80;99.90;;;;;;5040712;28;20437;-86
2023/10/10 12:04:55;;;;;;;0.10;0.10;;;15.80;99.90;;;;;;5020362;28;20481;-88
2023/10/10 12:07:24;;;;;;;0.10;0.10;;;15.90;99.90;;;;;;5032035;28;20422;-87
2023/10/10 12:09:53;;;;;;;0.10;0.10;;;16.10;99.90;;;;;;5048363;28;21246;-86
2023/10/10 12:12:19;;;;;;;0.10;0.10;;;16.10;99.90;;;;;;5041600;28;20448;-87
2023/10/10 12:14:45;;;;;;;0.10;0.10;;;16.10;99.90;;;;;;5029502;28;20472;-88
2023/10/10 12:17:13;;;;;;;0.10;0.10;;;16.10;99.90;;;;;;5037020;28;20488;-87
2023/10/10 12:19:43;;;;;;;0.10;0.10;;;16.20;99.90;;;;;;5031510;28;20184;-88
2023/10/10 12:22:12;;;;;;;0.10;0.10;;;16.30;99.90;;;;;;5030650;28;20484;-89
2023/10/10 12:24:39;;;;;;;0.10;0.10;;;16.60;99.90;;;;;;5042197;28;20512;-86
2023/10/10 12:27:09;;;;;;;0.10;0.10;;;16.70;99.90;;;;;;5024266;28;20437;-87
2023/10/10 12:29:40;;;;;;;0.10;0.10;;;16.90;99.90;;;;;;5050247;28;20429;-87
2023/10/10 12:32:15;;;;;;;0.10;0.10;;;16.80;99.90;;;;;;5024399;28;20437;-90
2023/10/10 12:34:42;;;;;;;0.10;0.10;;;16.80;99.90;;;;;;5048102;28;21341;-87
2023/10/10 12:37:08;;;;;;;0.10;0.10;;;16.70;99.90;;;;;;5049006;28;20433;-88
2023/10/10 12:39:34;;;;;;;0.10;0.10;;;16.60;99.90;;;;;;5013238;28;20852;-89
2023/10/10 12:41:59;;;;;;;0.10;0.10;;;16.50;99.90;;;;;;5011604;28;20575;-87
2023/10/10 12:44:25;;;;;;;0.10;0.10;;;16.50;99.90;;;;;;5045708;28;20222;-90
2023/10/10 12:46:54;;;;;;;0.10;0.10;;;16.40;99.90;;;;;;5016389;28;20187;-87
2023/10/10 12:49:28;;;;;;;0.10;0.10;;;16.40;99.90;;;;;;5029254;28;20195;-88
2023/10/10 12:51:55;;;;;;;0.10;0.10;;;16.40;99.90;;;;;;5025007;28;20880;-87
2023/10/10 12:54:21;;;;;;;0.10;0.10;;;16.30;99.90;;;;;;5023652;28;20478;-86
2023/10/10 12:56:55;;;;;;;0.10;0.10;;;16.20;99.90;;;;;;5047770;28;20452;-88
2023/10/10 12:59:22;;;;;;;0.10;0.10;;;16.20;99.90;;;;;;5047746;28;20544;-86
2023/10/10 13:01:48;;;;;;;0.10;0.10;;;16.10;99.90;;;;;;5028193;28;20516;-86
2023/10/10 13:04:17;;;;;;;0.10;0.10;;;16.10;99.90;;;;;;5019141;28;20585;-90
2023/10/10 13:06:43;;;;;;;0.10;0.10;;;16.20;99.90;;;;;;5011978;28;20237;-87
2023/10/10 13:09:14;;;;;;;0.10;0.10;;;16.10;99.90;;;;;;5013809;28;20553;-86
2023/10/10 13:11:47;;;;;;;0.10;0.10;;;16.10;99.90;;;;;;5026235;28;20441;-84
2023/10/10 13:14:19;;;;;;;0.10;0.10;;;16.10;99.90;;;;;;5033195;28;20520;-85
2023/10/10 13:19:13;;;;;;;0.10;0.10;;;16.00;99.90;;;;;;5043216;28;20532;-86
2023/10/10 13:21:41;;;;;;;0.10;0.10;;;16.00;99.90;;;;;;5024394;28;20278;-88
2023/10/10 13:24:11;;;;;;;0.10;0.10;;;15.90;99.90;;;;;;5048357;28;20580;-86
2023/10/10 13:26:37;;;;;;;0.10;0.10;;;15.90;99.90;;;;;;5029354;28;20732;-85
2023/10/10 13:29:03;;;;;;;0.10;0.10;;;15.90;99.90;;;;;;5043336;28;20453;-85
2023/10/10 13:31:29;;;;;;;0.10;0.10;;;15.90;99.90;;;;;;5023602;28;20429;-87
2023/10/10 13:33:56;;;;;;;0.10;0.10;;;15.90;99.90;;;;;;5046605;28;20893;-85
2023/10/10 13:36:21;;;;;;;0.10;0.10;;;15.90;99.90;;;;;;5043094;28;20181;-86
2023/10/10 13:38:49;;;;;;;0.10;0.10;;;15.90;99.90;;;;;;5023840;28;20438;-90
2023/10/10 13:41:18;;;;;;;0.10;0.10;;;15.90;99.90;;;;;;5018393;28;20207;-88
2023/10/10 13:43:48;;;;;;;0.10;0.10;;;15.90;99.90;;;;;;5036173;28;20468;-86
2023/10/10 13:46:15;;;;;;;0.10;0.10;;;15.90;99.90;;;;;;5022934;28;20453;-88
2023/10/10 13:48:40;;;;;;;0.10;0.10;;;15.90;99.90;;;;;;5040951;28;20437;-86
2023/10/10 13:51:07;;;;;;;0.10;0.10;;;15.90;99.90;;;;;;5050739;28;20455;-86
2023/10/10 13:53:33;;;;;;;0.10;0.10;;;15.90;99.90;;;;;;5046014;28;20198;-87
2023/10/10 13:56:05;;;;;;;0.10;0.10;;;15.90;99.90;;;;;;5028658;28;20441;-86
2023/10/10 13:58:31;;;;;;;0.10;0.10;;;15.80;99.90;;;;;;5045815;28;20437;-86
2023/10/10 14:01:14;;;;;;;0.10;0.10;;;15.90;99.90;;;;;;5048067;28;20441;-85
2023/10/10 14:03:47;;;;;;;0.10;0.10;;;15.90;99.90;;;;;;5046485;28;20529;-86
2023/10/10 14:06:19;;;;;;;0.10;0.10;;;15.90;99.90;;;;;;5049821;28;20480;-85
2023/10/10 14:08:47;;;;;;;0.10;0.10;;;15.90;99.90;;;;;;5021916;28;20447;-86
2023/10/10 14:11:20;;;;;;;0.10;0.10;;;15.90;99.90;;;;;;5042619;28;21100;-86
2023/10/10 14:13:50;;;;;;;0.10;0.10;;;15.90;99.90;;;;;;5047050;28;21054;-87
2023/10/10 14:16:20;;;;;;;0.10;0.10;;;15.90;99.90;;;;;;5044212;28;20444;-86
2023/10/10 14:18:49;;;;;;;0.10;0.10;;;16.00;99.90;;;;;;5027247;28;21161;-86
2023/10/10 14:21:26;;;;;;;0.10;0.10;;;16.00;99.90;;;;;;5043511;28;20433;-86
2023/10/10 14:24:05;;;;;;;0.10;0.10;;;16.00;99.90;;;;;;5027316;28;20499;-84
2023/10/10 14:26:33;;;;;;;0.10;0.10;;;16.00;99.90;;;;;;5021332;28;20858;-88
2023/10/10 14:29:04;;;;;;;0.10;0.10;;;16.00;99.90;;;;;;5049170;28;20448;-85
2023/10/10 14:31:31;;;;;;;0.10;0.10;;;16.10;99.90;;;;;;5050578;28;20425;-86
2023/10/10 14:34:00;;;;;;;0.10;0.10;;;16.10;99.90;;;;;;5031501;28;20460;-84
2023/10/10 14:36:27;;;;;;;0.10;0.10;;;16.10;99.90;;;;;;5052298;28;20447;-86
2023/10/10 14:38:53;;;;;;;0.10;0.10;;;16.10;99.90;;;;;;5047003;28;20470;-84
2023/10/10 14:41:22;;;;;;;0.10;0.10;;;16.10;99.90;;;;;;5033949;28;20433;-87
2023/10/10 14:44:00;;;;;;;0.10;0.10;;;16.10;99.90;;;;;;5051889;28;20457;-85
2023/10/10 14:46:33;;;;;;;0.10;0.10;;;16.10;99.90;;;;;;5043695;28;20448;-86
2023/10/10 14:49:28;;;;;;;0.10;0.10;;;16.10;99.90;;;;;;5020459;28;20430;-85
2023/10/10 14:51:50;;;;;;;0.10;0.10;;;16.10;99.90;;;;;;5037027;28;20461;-85
2023/10/10 14:54:19;;;;;;;0.10;0.10;;;16.10;99.90;;;;;;5049799;28;20429;-87
2023/10/10 14:56:51;;;;;;;0.10;0.10;;;16.20;99.90;;;;;;5041748;28;20716;-85
2023/10/10 14:59:20;;;;;;;0.10;0.10;;;16.20;99.90;;;;;;5037260;28;20438;-84
2023/10/10 15:01:49;;;;;;;0.10;0.10;;;16.20;99.90;;;;;;5043563;28;20441;-84
2023/10/10 15:04:19;;;;;;;0.10;0.10;;;16.20;99.90;;;;;;5045895;28;20500;-88
2023/10/10 15:06:46;;;;;;;0.10;0.10;;;16.20;99.90;;;;;;5045541;28;20449;-85
2023/10/10 15:09:19;;;;;;;0.10;0.10;;;16.20;99.90;;;;;;5029444;28;20487;-87
2023/10/10 15:11:46;;;;;;;0.10;0.10;;;16.20;99.90;;;;;;5043812;28;21003;-89
2023/10/10 15:14:12;;;;;;;0.10;0.10;;;16.20;99.90;;;;;;5026795;28;21125;-88
2023/10/10 15:16:41;;;;;;;0.10;0.10;;;16.30;99.90;;;;;;5043369;28;20429;-83
2023/10/10 15:19:08;;;;;;;0.10;0.10;;;16.30;99.90;;;;;;5048644;28;20996;-85
2023/10/10 15:21:35;;;;;;;0.10;0.10;;;16.30;99.90;;;;;;5027834;28;20434;-85
2023/10/10 15:24:01;;;;;;;0.10;0.10;;;16.30;99.90;;;;;;5037203;28;20488;-86